Dover, Delaware
Current Conditions -  °F | °C
As of 2:58 PM on Saturday 25 Oct 2014 (Local Time) from KDOV Reporting Station
Clear Clear  
Wind Chill: 69°   Ceiling: Unl
Heat Index: 69°   Visibility: 10mi
Dew Point: 45°   Wind: 18mph
Humidity: 42%   Direction: 250°WSW
Pressure: 29.77"   Gusts: 24mph
Location:  39.16°N, 75.52°W
Report Text: KDOV 251858Z AUTO 25016G21KT 10SM CLR 21/07 A2977 RMK AO2 SLP084 T02060071
Loading
Personal Weather Stations






























Interactive Weather Map New forecast layout! Learn more

10-Day Weather Forecast

Advertisements
Track Severe Weather on mobile